Time;durP1;ratioP1;P1;durP2;ratioP2;P2;SDS_P1;SDS_P2;PMS_P1;PMS_P2;Temp;Humidity;BMP_temperature;BMP_pressure;BME280_temperature;BME280_humidity;BME280_pressure;Samples;Min_cycle;Max_cycle;Signal;HPM_P1;HPM_P2
2023/07/06 00:00:40;;;;;;;6.32;3.15;;;;;;;18.45;54.46;100704.47;4148901;28;20084;-66
2023/07/06 00:02:43;;;;;;;6.97;3.10;;;;;;;18.33;54.72;100709.06;4149246;28;20592;-66
2023/07/06 00:04:47;;;;;;;6.93;3.25;;;;;;;18.27;54.56;100708.22;4141811;28;20034;-66
2023/07/06 00:06:49;;;;;;;4.47;2.55;;;;;;;18.29;54.33;100701.16;4141681;28;20038;-66
2023/07/06 00:08:53;;;;;;;6.72;3.05;;;;;;;18.32;54.37;100702.91;4145099;28;20042;-66
2023/07/06 00:10:55;;;;;;;5.53;2.88;;;;;;;18.33;54.94;100701.16;4144118;28;20038;-66
2023/07/06 00:13:01;;;;;;;5.03;2.65;;;;;;;18.32;54.81;100705.53;4153824;28;20129;-66
2023/07/06 00:15:06;;;;;;;6.72;3.15;;;;;;;18.30;54.83;100695.03;4153081;28;20096;-65
2023/07/06 00:17:12;;;;;;;6.43;3.03;;;;;;;18.26;54.85;100697.72;4169451;28;20129;-66
2023/07/06 00:19:18;;;;;;;6.32;2.80;;;;;;;18.25;54.99;100707.41;4142617;28;20046;-66
2023/07/06 00:21:21;;;;;;;5.95;2.90;;;;;;;18.19;55.38;100710.09;4145086;28;20030;-66
2023/07/06 00:23:25;;;;;;;14.55;4.80;;;;;;;18.10;55.25;100702.31;4153910;28;20037;-66
2023/07/06 00:25:28;;;;;;;9.45;3.65;;;;;;;18.04;55.21;100711.16;4153653;28;20054;-66
2023/07/06 00:27:31;;;;;;;8.55;3.20;;;;;;;18.02;55.51;100710.31;4152757;28;20038;-66
2023/07/06 00:29:35;;;;;;;13.20;3.78;;;;;;;18.00;55.55;100712.09;4152777;28;20100;-66
2023/07/06 00:31:51;;;;;;;9.63;3.80;;;;;;;17.97;55.74;100706.88;4150232;28;20415;-66
2023/07/06 00:33:54;;;;;;;9.77;3.10;;;;;;;17.92;56.04;100709.56;4125628;28;20046;-65
2023/07/06 00:35:57;;;;;;;8.02;3.53;;;;;;;17.93;56.42;100713.03;4150858;28;20030;-66
2023/07/06 00:38:02;;;;;;;7.75;3.17;;;;;;;17.90;56.44;100715.72;4154660;28;20076;-66
2023/07/06 00:40:09;;;;;;;6.38;3.30;;;;;;;17.86;56.75;100714.88;4155623;28;20042;-65
2023/07/06 00:42:16;;;;;;;7.55;3.28;;;;;;;17.89;57.27;100711.34;4147012;28;20449;-65
2023/07/06 00:44:48;;;;;;;10.48;3.28;;;;;;;17.86;57.92;100703.44;4145939;28;20077;-66
2023/07/06 00:46:52;;;;;;;9.60;2.88;;;;;;;17.82;58.18;100701.78;4152297;28;20041;-66
2023/07/06 00:48:58;;;;;;;9.18;3.60;;;;;;;17.85;58.73;100709.63;4126786;28;20050;-66
2023/07/06 00:51:03;;;;;;;9.95;3.80;;;;;;;17.81;58.89;100711.41;4129464;28;20073;-65
2023/07/06 00:53:13;;;;;;;7.07;3.13;;;;;;;17.75;59.17;100712.34;4145429;28;20066;-65
2023/07/06 00:55:17;;;;;;;8.00;3.00;;;;;;;17.70;59.59;100716.78;4147068;28;20046;-66
2023/07/06 00:57:22;;;;;;;7.13;2.65;;;;;;;17.59;60.56;100718.66;4139580;28;20034;-65
2023/07/06 00:59:26;;;;;;;;;;;;;;;17.42;60.86;100714.47;4130448;28;20050;-66
2023/07/06 01:01:31;;;;;;;7.40;3.15;;;;;;;17.47;60.41;100713.56;4146370;28;19925;-66
2023/07/06 01:03:44;;;;;;;9.98;3.53;;;;;;;17.51;60.31;100712.59;4143451;28;20150;-66
2023/07/06 01:05:48;;;;;;;7.70;3.42;;;;;;;17.41;60.41;100723.22;4154363;28;20568;-65
2023/07/06 01:07:52;;;;;;;9.88;3.70;;;;;;;17.34;60.64;100718.91;4162548;28;20052;-66
2023/07/06 01:09:55;;;;;;;7.43;3.90;;;;;;;17.35;60.76;100706.66;4156627;28;20038;-65
2023/07/06 01:11:58;;;;;;;8.40;3.83;;;;;;;17.42;60.60;100710.94;4147789;28;20516;-66
2023/07/06 01:14:01;;;;;;;11.98;3.38;;;;;;;17.45;60.47;100710.94;4130711;28;20467;-65
2023/07/06 01:16:11;;;;;;;10.75;3.30;;;;;;;17.49;60.31;100706.50;4133049;28;20044;-66
2023/07/06 01:18:22;;;;;;;6.28;2.97;;;;;;;17.42;59.92;100714.47;4159375;22;20030;-66
2023/07/06 01:20:31;;;;;;;11.45;3.25;;;;;;;17.31;59.60;100708.44;4151097;28;20037;-66
2023/07/06 01:23:05;;;;;;;8.38;3.25;;;;;;;17.25;59.92;100711.97;4165765;28;20041;-67
2023/07/06 01:25:23;;;;;;;6.57;3.28;;;;;;;17.24;59.88;100717.25;4155352;28;20045;-66
2023/07/06 01:27:50;;;;;;;8.73;3.55;;;;;;;17.27;59.82;100704.97;4134218;28;20035;-68
2023/07/06 01:30:24;;;;;;;6.65;2.42;;;;;;;17.26;59.97;100705.84;4127811;28;20092;-68
2023/07/06 01:32:32;;;;;;;9.07;3.13;;;;;;;17.20;60.28;100703.28;4131306;28;20037;-67
2023/07/06 01:34:43;;;;;;;10.00;2.95;;;;;;;17.14;60.53;100707.72;4118382;28;20097;-67
2023/07/06 01:36:50;;;;;;;5.60;2.75;;;;;;;17.16;60.54;100705.97;4132456;28;20069;-68
2023/07/06 01:39:12;;;;;;;3.65;2.28;;;;;;;17.17;60.22;100702.44;4128990;28;20078;-68
2023/07/06 01:41:15;;;;;;;7.78;2.92;;;;;;;17.21;60.47;100712.03;4140380;28;20069;-68
2023/07/06 01:43:20;;;;;;;7.82;2.63;;;;;;;17.23;60.58;100712.88;4116448;28;20050;-68
2023/07/06 01:45:25;;;;;;;5.93;3.30;;;;;;;17.23;60.67;100710.25;4117233;28;20043;-67
2023/07/06 01:47:31;;;;;;;12.05;3.58;;;;;;;17.23;60.66;100712.88;4134528;28;20041;-67
2023/07/06 01:49:35;;;;;;;8.65;3.88;;;;;;;17.23;60.68;100713.78;4141657;28;20042;-67
2023/07/06 01:51:48;;;;;;;13.48;5.40;;;;;;;17.24;60.60;100712.91;4148829;28;20132;-68
2023/07/06 01:53:59;;;;;;;18.38;5.40;;;;;;;17.20;60.50;100712.91;4148140;28;20068;-67
2023/07/06 01:56:07;;;;;;;14.63;4.35;;;;;;;17.15;61.03;100717.34;4141181;28;20065;-67
2023/07/06 01:58:23;;;;;;;16.98;4.85;;;;;;;17.13;60.96;100716.47;4123484;28;20049;-68
2023/07/06 02:00:28;;;;;;;12.88;4.30;;;;;;;17.06;60.96;100711.28;4132562;28;20038;-68
2023/07/06 02:02:33;;;;;;;;;;;;;;;16.92;61.75;100714.03;4133897;28;20492;-68
2023/07/06 02:04:43;;;;;;;12.98;3.97;;;;;;;16.92;61.59;100713.16;4150842;28;19921;-68
2023/07/06 02:06:46;;;;;;;9.77;4.18;;;;;;;16.89;62.07;100716.69;4145355;28;20491;-67
2023/07/06 02:08:49;;;;;;;16.83;4.38;;;;;;;16.92;62.16;100713.16;4148611;28;20085;-68
2023/07/06 02:10:52;;;;;;;8.05;3.83;;;;;;;16.94;61.91;100706.16;4148458;28;20487;-67
2023/07/06 02:12:55;;;;;;;9.07;4.13;;;;;;;16.87;62.00;100704.41;4148703;28;20050;-67
2023/07/06 02:14:58;;;;;;;16.63;4.25;;;;;;;16.86;62.10;100707.91;4148964;28;20423;-67
2023/07/06 02:17:01;;;;;;;10.80;5.22;;;;;;;16.87;61.93;100701.78;4145190;28;20068;-67
2023/07/06 02:19:06;;;;;;;14.18;5.18;;;;;;;16.82;62.16;100695.69;4145064;28;20149;-67
2023/07/06 02:21:09;;;;;;;10.38;4.93;;;;;;;16.80;61.98;100700.94;4123510;28;20058;-67
2023/07/06 02:23:11;;;;;;;15.27;5.53;;;;;;;16.75;62.19;100701.00;4140053;28;20038;-66
2023/07/06 02:25:15;;;;;;;13.32;4.20;;;;;;;16.73;62.52;100697.53;4147686;28;20488;-67
2023/07/06 02:27:19;;;;;;;8.80;4.50;;;;;;;16.75;62.62;100706.25;4147321;28;20042;-67
2023/07/06 02:29:22;;;;;;;10.02;4.82;;;;;;;16.74;62.96;100703.63;4148232;28;20085;-67
2023/07/06 02:31:25;;;;;;;15.43;5.45;;;;;;;16.74;63.26;100712.38;4148221;28;20096;-67
2023/07/06 02:33:30;;;;;;;9.73;4.93;;;;;;;16.74;63.12;100712.38;4144340;28;20112;-67
2023/07/06 02:35:34;;;;;;;14.02;4.90;;;;;;;16.81;63.21;100710.56;4140746;28;20524;-67
2023/07/06 02:37:38;;;;;;;11.13;4.60;;;;;;;16.83;63.37;100707.94;4138946;28;20477;-67
2023/07/06 02:39:42;;;;;;;10.00;5.13;;;;;;;16.83;63.61;100718.44;4140942;28;20467;-67
2023/07/06 02:41:45;;;;;;;11.83;6.07;;;;;;;16.81;63.39;100713.22;4148029;28;20045;-67
2023/07/06 02:43:48;;;;;;;13.68;5.00;;;;;;;16.80;63.47;100711.44;4147242;28;20555;-67
2023/07/06 02:45:51;;;;;;;17.65;6.13;;;;;;;16.81;63.36;100709.72;4144948;28;20044;-67
2023/07/06 02:47:53;;;;;;;17.45;6.05;;;;;;;16.79;63.23;100706.22;4140805;28;20515;-67
2023/07/06 02:49:57;;;;;;;18.42;6.07;;;;;;;16.79;63.13;100704.44;4144867;28;20495;-67
2023/07/06 02:52:01;;;;;;;10.68;5.07;;;;;;;16.75;63.41;100703.63;4131612;28;20070;-67
2023/07/06 02:54:04;;;;;;;;;;;;;;;16.62;63.34;100707.22;4143181;28;20401;-66
2023/07/06 02:56:07;;;;;;;10.63;4.38;;;;;;;16.64;62.58;100701.97;4147759;28;19956;-67
2023/07/06 02:58:10;;;;;;;12.70;4.45;;;;;;;16.62;62.38;100701.06;4131579;28;20043;-67
2023/07/06 03:00:16;;;;;;;10.07;3.75;;;;;;;16.65;62.11;100698.47;4131481;28;20069;-67
2023/07/06 03:02:19;;;;;;;9.25;3.85;;;;;;;16.61;61.60;100694.97;4141268;28;20034;-68
2023/07/06 03:04:22;;;;;;;10.75;3.60;;;;;;;16.58;61.22;100703.72;4123343;28;20049;-68
2023/07/06 03:06:25;;;;;;;9.05;3.30;;;;;;;16.56;61.84;100702.00;4147624;28;20133;-69
2023/07/06 03:08:29;;;;;;;8.82;3.97;;;;;;;16.52;61.91;100700.28;4137083;28;20511;-68
2023/07/06 03:10:32;;;;;;;12.75;3.63;;;;;;;16.51;61.64;100706.41;4147998;28;20512;-69
2023/07/06 03:12:37;;;;;;;7.95;3.30;;;;;;;16.50;61.43;100704.66;4149331;28;20125;-68
2023/07/06 03:14:40;;;;;;;7.47;3.25;;;;;;;16.46;60.92;100708.19;4146980;28;20038;-69
2023/07/06 03:16:43;;;;;;;7.97;3.63;;;;;;;16.39;60.86;100704.72;4145565;28;20030;-67
2023/07/06 03:18:46;;;;;;;7.45;2.85;;;;;;;16.33;60.37;100705.63;4143331;28;20534;-68
2023/07/06 03:20:49;;;;;;;6.40;3.45;;;;;;;16.35;60.17;100701.28;4143445;28;20052;-67
2023/07/06 03:22:54;;;;;;;7.03;3.00;;;;;;;16.30;60.54;100703.03;4147309;28;20076;-67
2023/07/06 03:24:59;;;;;;;5.45;2.35;;;;;;;16.20;60.77;100707.44;4139521;28;20554;-68
2023/07/06 03:27:02;;;;;;;4.97;2.50;;;;;;;16.16;60.56;100710.09;4139384;28;20038;-67
2023/07/06 03:29:08;;;;;;;6.43;2.60;;;;;;;16.19;60.72;100707.44;4134295;28;20038;-67
2023/07/06 03:31:14;;;;;;;7.40;3.03;;;;;;;16.14;60.44;100704.00;4117415;28;20519;-68
2023/07/06 03:33:16;;;;;;;6.05;2.90;;;;;;;16.08;60.15;100706.63;4136661;28;20480;-68
2023/07/06 03:35:22;;;;;;;4.97;2.63;;;;;;;16.09;60.32;100711.91;4139834;28;20080;-67
2023/07/06 03:37:25;;;;;;;10.70;2.97;;;;;;;16.12;59.99;100710.97;4130848;28;20053;-67
2023/07/06 03:39:29;;;;;;;6.85;3.15;;;;;;;16.15;60.44;100710.97;4123030;28;20061;-68
2023/07/06 03:41:33;;;;;;;8.80;2.92;;;;;;;16.18;60.86;100703.97;4140935;28;20038;-68
2023/07/06 03:43:36;;;;;;;7.68;3.00;;;;;;;16.22;60.51;100705.69;4147222;28;20116;-68
2023/07/06 03:45:39;;;;;;;7.03;2.70;;;;;;;16.23;60.89;100711.81;4137051;28;20073;-69
2023/07/06 03:47:43;;;;;;;6.60;2.97;;;;;;;16.23;60.96;100702.19;4140328;28;20416;-69
2023/07/06 03:49:46;;;;;;;4.40;2.78;;;;;;;16.29;61.63;100710.91;4136234;28;20034;-68
2023/07/06 03:51:49;;;;;;;5.10;2.95;;;;;;;16.30;61.40;100708.28;4131237;28;20058;-66
2023/07/06 03:53:52;;;;;;;6.28;2.58;;;;;;;16.32;61.16;100714.38;4134958;28;20049;-66
2023/07/06 03:55:55;;;;;;;9.52;3.00;;;;;;;16.50;61.58;100715.16;4135884;28;20045;-67
2023/07/06 03:58:00;;;;;;;10.15;2.85;;;;;;;16.53;61.03;100712.53;4141914;28;20531;-67
2023/07/06 04:00:13;;;;;;;12.68;3.03;;;;;;;16.49;61.04;100709.03;4140936;28;20030;-68
2023/07/06 04:02:16;;;;;;;6.47;3.08;;;;;;;16.42;60.87;100714.34;4142323;28;20103;-69
2023/07/06 04:04:20;;;;;;;6.88;3.40;;;;;;;16.33;61.39;100710.88;4138255;28;20035;-68
2023/07/06 04:06:24;;;;;;;;;;;;;;;16.23;62.24;100712.66;4132818;28;20049;-59
2023/07/06 04:08:27;;;;;;;10.95;3.13;;;;;;;16.75;62.47;100721.13;4131162;28;19922;-59
2023/07/06 04:10:30;;;;;;;9.65;3.13;;;;;;;17.41;60.81;100712.72;4140118;28;20057;-59
2023/07/06 04:12:35;;;;;;;12.18;3.00;;;;;;;17.82;59.82;100717.56;4141022;28;20380;-59
2023/07/06 04:14:40;;;;;;;15.63;3.30;;;;;;;18.04;58.86;100724.31;4137779;28;20129;-59
2023/07/06 04:16:42;;;;;;;4.00;2.35;;;;;;;18.17;58.39;100732.06;4136987;28;20042;-59
2023/07/06 04:18:46;;;;;;;6.40;3.03;;;;;;;18.24;57.77;100733.72;4129257;28;20085;-60
2023/07/06 04:20:48;;;;;;;7.15;2.88;;;;;;;18.27;57.93;100731.06;4138647;28;20117;-59
2023/07/06 04:22:54;;;;;;;7.55;2.97;;;;;;;18.41;57.96;100728.22;4139616;28;20038;-59
2023/07/06 04:24:57;;;;;;;5.30;3.72;;;;;;;18.47;57.83;100729.03;4135190;28;20045;-68
2023/07/06 04:27:00;;;;;;;5.38;2.58;;;;;;;18.19;57.68;100739.03;4128819;28;20069;-68
2023/07/06 04:29:04;;;;;;;8.40;2.60;;;;;;;17.86;58.58;100730.66;4132020;28;20500;-68
2023/07/06 04:31:10;;;;;;;5.70;2.90;;;;;;;17.63;59.10;100741.41;4130320;28;20042;-68
2023/07/06 04:33:16;;;;;;;4.72;2.75;;;;;;;17.44;59.71;100731.06;4131413;28;20038;-68
2023/07/06 04:35:22;;;;;;;5.65;2.72;;;;;;;17.25;59.79;100740.88;4131052;28;20125;-68
2023/07/06 04:37:25;;;;;;;6.40;3.00;;;;;;;17.12;60.32;100738.41;4131515;28;20557;-68
2023/07/06 04:39:28;;;;;;;7.18;3.10;;;;;;;17.05;60.65;100743.66;4130873;28;20042;-68
2023/07/06 04:41:31;;;;;;;8.00;2.85;;;;;;;17.02;60.80;100745.47;4129863;28;20046;-68
2023/07/06 04:43:33;;;;;;;5.05;2.90;;;;;;;16.97;61.13;100742.00;4131386;28;20038;-68
2023/07/06 04:45:37;;;;;;;6.22;2.88;;;;;;;16.99;61.16;100741.09;4140561;28;20042;-68
2023/07/06 04:47:44;;;;;;;6.35;2.92;;;;;;;17.01;61.31;100736.72;4141192;28;20113;-68
2023/07/06 04:49:47;;;;;;;6.88;2.72;;;;;;;17.03;61.11;100741.97;4144403;28;20040;-68
2023/07/06 04:51:50;;;;;;;5.28;2.63;;;;;;;17.03;61.41;100742.81;4151008;28;20073;-68
2023/07/06 04:53:53;;;;;;;6.15;2.90;;;;;;;17.05;61.70;100740.19;4148971;28;20045;-68
2023/07/06 04:55:56;;;;;;;9.55;2.92;;;;;;;17.05;61.76;100750.69;4143697;28;20116;-68
2023/07/06 04:58:01;;;;;;;5.53;2.92;;;;;;;17.08;61.85;100743.69;4142562;28;20132;-68
2023/07/06 05:00:12;;;;;;;8.50;3.40;;;;;;;17.13;62.15;100745.38;4148712;28;20121;-68
2023/07/06 05:02:16;;;;;;;9.82;3.22;;;;;;;17.19;62.44;100747.97;4125174;28;20038;-68
2023/07/06 05:04:20;;;;;;;7.38;3.08;;;;;;;17.24;63.01;100759.28;4147325;28;20125;-68
2023/07/06 05:06:24;;;;;;;9.48;3.50;;;;;;;17.29;63.04;100754.88;4147340;28;20091;-68
2023/07/06 05:08:27;;;;;;;6.47;3.15;;;;;;;17.36;62.88;100760.94;4124711;28;20314;-68
2023/07/06 05:10:30;;;;;;;7.82;4.13;;;;;;;17.41;62.46;100759.16;4147977;28;20061;-68
2023/07/06 05:12:33;;;;;;;7.85;3.10;;;;;;;17.50;62.61;100758.19;4144438;28;20038;-68
2023/07/06 05:14:36;;;;;;;7.05;2.78;;;;;;;17.53;63.43;100760.78;4140073;28;20046;-68
2023/07/06 05:16:39;;;;;;;4.95;3.05;;;;;;;17.53;63.51;100759.03;4142386;28;20038;-68
2023/07/06 05:18:43;;;;;;;6.28;3.20;;;;;;;17.57;63.82;100763.38;4150414;28;20121;-68
2023/07/06 05:20:49;;;;;;;8.35;3.75;;;;;;;17.59;62.86;100760.72;4150455;28;20454;-68
2023/07/06 05:22:53;;;;;;;10.13;3.83;;;;;;;17.63;62.20;100762.44;4133073;28;20049;-68
2023/07/06 05:24:56;;;;;;;7.43;4.20;;;;;;;17.66;61.35;100765.03;4142894;28;20125;-68
2023/07/06 05:26:59;;;;;;;6.65;3.97;;;;;;;17.69;60.77;100759.75;4143718;28;20069;-68
2023/07/06 05:29:01;;;;;;;6.38;3.60;;;;;;;17.75;60.42;100764.94;4143628;28;20062;-68
2023/07/06 05:31:05;;;;;;;10.73;4.07;;;;;;;17.80;60.46;100770.16;4151396;28;20569;-68
2023/07/06 05:33:08;;;;;;;9.18;3.97;;;;;;;17.86;59.97;100762.22;4132731;28;20034;-68
2023/07/06 05:35:13;;;;;;;7.80;3.65;;;;;;;17.93;60.07;100763.91;4143885;28;20547;-68
2023/07/06 05:37:17;;;;;;;7.65;3.40;;;;;;;18.00;60.31;100764.69;4142011;28;20048;-68
2023/07/06 05:39:36;;;;;;;9.40;3.45;;;;;;;18.06;60.06;100762.00;4147026;28;20037;-68
2023/07/06 05:41:39;;;;;;;9.38;4.03;;;;;;;18.12;59.90;100761.03;4147159;28;20520;-68
2023/07/06 05:43:42;;;;;;;7.97;3.55;;;;;;;18.19;59.80;100761.84;4144761;28;20046;-68
2023/07/06 05:45:46;;;;;;;8.55;3.92;;;;;;;18.25;59.81;100761.78;4145347;28;20045;-68
2023/07/06 05:47:49;;;;;;;10.15;3.42;;;;;;;18.31;59.68;100766.94;4145941;28;20049;-68
2023/07/06 05:49:52;;;;;;;8.07;3.50;;;;;;;18.37;59.62;100773.91;4132586;28;20467;-68
2023/07/06 05:51:55;;;;;;;9.10;3.90;;;;;;;18.45;59.23;100766.78;4150041;28;20380;-68
2023/07/06 05:53:59;;;;;;;9.70;4.68;;;;;;;18.54;58.35;100771.06;4140790;28;20081;-68
2023/07/06 05:56:05;;;;;;;8.02;4.43;;;;;;;18.59;58.42;100772.72;4148139;28;20041;-68
2023/07/06 05:58:07;;;;;;;8.60;4.25;;;;;;;18.67;57.96;100772.63;4148734;28;20041;-69
2023/07/06 06:00:11;;;;;;;9.63;4.82;;;;;;;18.75;57.49;100772.50;4145337;28;20571;-68
2023/07/06 06:02:17;;;;;;;11.10;4.82;;;;;;;18.84;57.04;100778.50;4140481;28;20125;-68
2023/07/06 06:04:20;;;;;;;12.48;4.63;;;;;;;18.92;56.78;100777.56;4117012;28;20047;-68
2023/07/06 06:06:26;;;;;;;8.32;4.28;;;;;;;18.99;57.18;100784.47;4121000;28;20038;-68
2023/07/06 06:08:30;;;;;;;9.95;4.40;;;;;;;19.07;56.55;100784.34;4141615;28;20129;-68
2023/07/06 06:10:34;;;;;;;8.88;4.22;;;;;;;19.16;56.71;100790.34;4149639;28;20496;-69
2023/07/06 06:12:37;;;;;;;8.63;4.70;;;;;;;19.23;56.09;100788.50;4149827;28;20042;-68
2023/07/06 06:14:40;;;;;;;12.25;4.50;;;;;;;19.32;56.35;100787.47;4146963;28;20559;-67
2023/07/06 06:16:43;;;;;;;10.20;4.50;;;;;;;19.43;56.06;100789.91;4146285;28;20038;-68
2023/07/06 06:18:46;;;;;;;9.43;4.55;;;;;;;19.60;54.22;100781.72;4133320;28;20496;-67
2023/07/06 06:20:50;;;;;;;13.75;6.60;;;;;;;19.64;53.19;100786.00;4142758;28;20036;-67
2023/07/06 06:22:53;;;;;;;13.95;5.50;;;;;;;19.61;52.82;100794.00;4141315;28;20063;-69
2023/07/06 06:24:56;;;;;;;12.70;5.75;;;;;;;19.61;52.69;100788.72;4148871;28;20411;-68
2023/07/06 06:27:00;;;;;;;13.80;6.60;;;;;;;19.81;52.05;100794.53;4149476;28;20049;-67
2023/07/06 06:29:04;;;;;;;13.85;5.60;;;;;;;19.82;51.79;100787.50;4148105;28;20042;-68
2023/07/06 06:31:07;;;;;;;12.90;6.05;;;;;;;19.91;51.46;100792.59;4147149;28;20062;-68
2023/07/06 06:33:10;;;;;;;10.02;5.57;;;;;;;19.96;51.11;100789.84;4141197;28;20038;-68
2023/07/06 06:35:21;;;;;;;11.43;6.38;;;;;;;20.02;50.81;100801.19;4147614;28;20046;-67
2023/07/06 06:37:24;;;;;;;11.15;7.38;;;;;;;20.12;49.86;100804.50;4131802;28;20519;-68
2023/07/06 06:39:27;;;;;;;13.93;7.68;;;;;;;20.05;50.20;100805.53;4149250;28;20034;-67
2023/07/06 06:41:30;;;;;;;12.02;7.57;;;;;;;20.09;50.19;100809.81;4148072;28;20173;-68
2023/07/06 06:43:36;;;;;;;13.10;6.50;;;;;;;20.09;50.87;100804.53;4145828;28;20049;-67
2023/07/06 06:45:40;;;;;;;12.05;6.30;;;;;;;20.16;51.32;100807.94;4139393;28;20390;-67
2023/07/06 06:47:43;;;;;;;11.20;7.75;;;;;;;20.27;50.93;100802.44;4144390;28;20104;-67
2023/07/06 06:49:46;;;;;;;14.30;10.57;;;;;;;20.54;49.37;100814.22;4149149;28;20038;-68
2023/07/06 06:51:49;;;;;;;16.77;11.25;;;;;;;20.50;49.16;100809.88;4147994;28;20105;-67
2023/07/06 06:53:53;;;;;;;16.88;9.68;;;;;;;20.40;49.53;100807.44;4148597;28;20073;-68
2023/07/06 06:55:56;;;;;;;18.42;10.55;;;;;;;20.43;49.53;100801.25;4147839;28;20399;-68
2023/07/06 06:58:00;;;;;;;14.88;10.27;;;;;;;20.50;49.13;100807.25;4149006;28;20034;-68
2023/07/06 07:00:06;;;;;;;17.75;10.55;;;;;;;20.67;48.66;100799.84;4145297;28;20109;-68
2023/07/06 07:02:10;;;;;;;21.75;11.90;;;;;;;20.75;47.85;100810.28;4123471;28;20034;-67
2023/07/06 07:04:14;;;;;;;20.38;11.82;;;;;;;20.74;47.37;100800.59;4146989;28;20048;-67
2023/07/06 07:06:17;;;;;;;19.95;12.43;;;;;;;20.60;47.69;100803.50;4140662;28;20172;-68
2023/07/06 07:08:20;;;;;;;18.45;9.63;;;;;;;20.53;48.51;100808.06;4147573;28;20042;-68
2023/07/06 07:10:23;;;;;;;16.70;9.85;;;;;;;20.57;48.58;100812.38;4148630;28;20048;-69
2023/07/06 07:12:26;;;;;;;16.05;10.48;;;;;;;20.71;48.73;100805.94;4147457;28;20112;-68
2023/07/06 07:14:29;;;;;;;24.52;10.32;;;;;;;20.83;48.00;100803.03;4142678;28;20491;-68
2023/07/06 07:16:35;;;;;;;18.88;11.52;;;;;;;21.05;47.97;100802.53;4125026;28;20113;-67
2023/07/06 07:18:39;;;;;;;21.13;10.40;;;;;;;21.10;46.77;100811.22;4163329;22;20833;-68
2023/07/06 07:20:43;;;;;;;15.70;8.88;;;;;;;20.98;47.15;100803.56;4148837;28;20045;-69
2023/07/06 07:22:46;;;;;;;16.98;9.90;;;;;;;20.97;47.36;100808.00;4167601;28;20045;-68
2023/07/06 07:24:49;;;;;;;16.65;11.45;;;;;;;21.19;46.75;100803.06;4147186;28;20048;-69
2023/07/06 07:26:52;;;;;;;22.48;10.25;;;;;;;21.18;46.30;100806.59;4148358;28;20777;-68
2023/07/06 07:28:55;;;;;;;19.55;10.15;;;;;;;21.19;46.63;100813.63;4149209;28;20092;-68
2023/07/06 07:31:00;;;;;;;13.88;8.90;;;;;;;21.24;45.69;100811.75;4139027;28;20060;-67
2023/07/06 07:33:04;;;;;;;17.65;8.38;;;;;;;21.22;45.52;100812.72;4146328;28;20096;-67
2023/07/06 07:35:08;;;;;;;18.90;9.77;;;;;;;21.18;45.78;100809.25;4139544;28;20038;-68
2023/07/06 07:37:14;;;;;;;16.13;8.43;;;;;;;21.14;46.03;100814.66;4148309;28;20037;-68
2023/07/06 07:39:16;;;;;;;15.13;7.40;;;;;;;21.13;46.47;100810.25;4148400;28;20049;-69
2023/07/06 07:41:20;;;;;;;13.80;7.97;;;;;;;21.20;46.37;100810.09;4147202;28;20555;-69
2023/07/06 07:43:25;;;;;;;13.48;7.97;;;;;;;21.27;46.43;100809.03;4140864;28;20117;-68
2023/07/06 07:45:28;;;;;;;19.20;9.38;;;;;;;21.48;45.06;100814.69;4129633;28;20130;-68
2023/07/06 07:47:31;;;;;;;18.50;7.13;;;;;;;;;;4132085;28;20066;-69
2023/07/06 07:49:37;;;;;;;10.23;6.55;;;;;;;21.62;44.68;100817.00;4131911;28;20050;-68
2023/07/06 07:51:40;;;;;;;14.43;7.80;;;;;;;21.61;44.65;100816.16;4130664;28;20042;-68
2023/07/06 07:53:45;;;;;;;11.50;6.25;;;;;;;21.70;44.86;100808.84;4131669;28;20038;-69
2023/07/06 07:55:48;;;;;;;15.20;6.65;;;;;;;21.80;44.72;100805.09;4131962;28;20045;-69
2023/07/06 07:57:51;;;;;;;15.77;8.10;;;;;;;21.94;44.71;100805.56;4137052;28;20065;-68
2023/07/06 07:59:54;;;;;;;20.48;9.23;;;;;;;22.08;44.12;100806.97;4139816;28;20312;-69
2023/07/06 08:01:57;;;;;;;12.65;8.02;;;;;;;21.97;44.46;100808.13;4148037;28;20096;-69
2023/07/06 08:04:00;;;;;;;15.95;8.80;;;;;;;22.05;43.98;100801.75;4147346;28;20569;-69
2023/07/06 08:06:08;;;;;;;17.23;9.45;;;;;;;22.15;43.80;100808.50;4146916;28;20467;-68
2023/07/06 08:08:12;;;;;;;15.73;8.63;;;;;;;22.22;43.18;100811.88;4148015;28;20046;-69
2023/07/06 08:10:16;;;;;;;11.80;6.95;;;;;;;22.02;43.62;100809.78;4143060;28;20075;-68
2023/07/06 08:12:20;;;;;;;15.57;6.60;;;;;;;22.04;44.26;100807.97;4129691;28;20049;-68
2023/07/06 08:14:35;;;;;;;17.83;7.20;;;;;;;22.25;42.99;100806.47;4139213;28;20488;-69
2023/07/06 08:16:40;;;;;;;;;;;;;;;22.16;43.83;100807.59;4148270;28;20038;-69
2023/07/06 08:18:43;;;;;;;11.63;5.78;;;;;;;22.23;43.92;100803.88;4142177;28;19926;-67
2023/07/06 08:20:47;;;;;;;12.45;6.15;;;;;;;22.40;42.18;100800.78;4143493;28;20073;-68
2023/07/06 08:23:13;;;;;;;11.10;5.63;;;;;;;22.33;42.66;100804.50;4147730;28;20050;-68
2023/07/06 08:25:16;;;;;;;13.13;5.80;;;;;;;22.36;43.06;100804.44;4144449;28;20496;-68
2023/07/06 08:27:18;;;;;;;13.43;5.25;;;;;;;22.40;43.39;100805.19;4131638;28;20520;-68
2023/07/06 08:29:25;;;;;;;12.68;5.82;;;;;;;22.64;42.72;100800.94;4131536;28;20509;-68
2023/07/06 08:31:28;;;;;;;14.63;6.75;;;;;;;22.85;41.67;100807.34;4114207;28;20552;-68
2023/07/06 08:33:32;;;;;;;11.27;5.95;;;;;;;22.69;41.91;100809.59;4134693;28;20069;-68
2023/07/06 08:35:35;;;;;;;9.38;4.75;;;;;;;22.65;42.80;100806.19;4141366;28;20069;-69
2023/07/06 08:37:37;;;;;;;8.80;3.90;;;;;;;22.76;42.84;100805.00;4139554;28;20061;-68
2023/07/06 08:39:42;;;;;;;6.85;2.70;;;;;;;22.90;42.19;100809.88;4147587;28;20056;-69
2023/07/06 08:41:48;;;;;;;5.18;2.15;;;;;;;22.97;41.74;100806.97;4145471;28;20121;-69
2023/07/06 08:43:51;;;;;;;6.88;2.53;;;;;;;23.03;40.74;100805.91;4153918;28;20065;-68
2023/07/06 08:45:58;;;;;;;6.63;2.53;;;;;;;23.15;40.04;100808.19;4147701;28;20041;-68
2023/07/06 08:48:01;;;;;;;7.45;2.90;;;;;;;23.31;39.00;100805.91;4141076;28;20539;-68
2023/07/06 08:50:07;;;;;;;5.75;2.20;;;;;;;23.18;40.06;100810.75;4121936;28;20062;-68
2023/07/06 08:52:12;;;;;;;3.55;2.03;;;;;;;23.18;40.27;100809.88;4146434;28;20553;-68
2023/07/06 08:54:20;;;;;;;5.55;2.33;;;;;;;23.31;40.13;100805.91;4147141;28;20550;-69
2023/07/06 08:56:27;;;;;;;6.60;2.50;;;;;;;23.51;39.78;100799.06;4145459;28;20113;-69
2023/07/06 08:58:33;;;;;;;6.03;2.60;;;;;;;23.59;38.75;100794.34;4137340;28;20046;-68
2023/07/06 09:00:36;;;;;;;5.10;2.28;;;;;;;23.45;39.71;100799.25;4154361;28;20046;-68
2023/07/06 09:02:39;;;;;;;5.88;2.10;;;;;;;23.50;39.47;100794.69;4147481;28;20475;-69
2023/07/06 09:04:43;;;;;;;5.70;2.20;;;;;;;23.62;39.30;100794.25;4146949;28;20499;-68
2023/07/06 09:07:00;;;;;;;5.88;2.45;;;;;;;23.74;38.86;100797.41;4147603;28;20144;-69
2023/07/06 09:09:03;;;;;;;5.00;2.05;;;;;;;23.82;38.87;100790.03;4146190;28;20471;-68
2023/07/06 09:11:07;;;;;;;5.45;2.45;;;;;;;23.73;38.35;100790.34;4145150;28;20054;-68
2023/07/06 09:13:27;;;;;;;6.20;2.10;;;;;;;23.50;39.11;100784.91;4145270;28;20120;-69
2023/07/06 09:15:31;;;;;;;4.97;2.33;;;;;;;23.42;40.11;100788.75;4142472;28;20108;-68
2023/07/06 09:17:45;;;;;;;3.10;2.15;;;;;;;23.67;39.70;100780.81;4139101;28;20067;-68
2023/07/06 09:19:49;;;;;;;4.63;1.80;;;;;;;23.88;38.01;100784.53;4147268;28;20558;-69
2023/07/06 09:21:55;;;;;;;3.53;1.90;;;;;;;24.00;36.64;100784.06;4144092;28;20073;-68
2023/07/06 09:24:01;;;;;;;3.65;1.83;;;;;;;24.00;37.14;100784.06;4137239;28;20050;-68
2023/07/06 09:26:08;;;;;;;4.13;2.10;;;;;;;24.08;37.11;100781.16;4147324;28;20104;-68
2023/07/06 09:28:29;;;;;;;4.68;2.10;;;;;;;24.23;36.07;100783.22;4142303;28;20046;-68
2023/07/06 09:30:36;;;;;;;6.15;2.60;;;;;;;24.36;34.95;100780.97;4142124;28;20050;-68
2023/07/06 09:32:38;;;;;;;4.93;2.25;;;;;;;24.28;35.10;100776.88;4140698;28;20508;-68
2023/07/06 09:34:44;;;;;;;6.68;2.50;;;;;;;24.31;35.22;100769.66;4143762;28;20045;-68
2023/07/06 09:36:48;;;;;;;6.57;1.90;;;;;;;24.30;35.76;100770.59;4141488;28;20037;-68
2023/07/06 09:38:51;;;;;;;4.25;2.33;;;;;;;24.48;35.26;100773.47;4146565;28;20041;-68
2023/07/06 09:40:55;;;;;;;5.73;2.70;;;;;;;24.50;34.39;100779.56;4149118;28;20097;-68